EXS8WJ EGBB-LTBS
Flight info
| Callsign | EXS8WJ |
|---|---|
| Flight time | N/A |
| Altitude | 33000 |
| Route | ADMEX Y321 EMKUK UL612 VEULE DCT TEPRI DCT POGZI DCT GELTA DCT LUVAL DCT BEGAR DCT TRA DCT GAMSA DCT GEDSO DCT VEKEN/N0461F350 DCT GORPA DCT TIVNU DCT MITNO DCT VABEK UL603 OLOTA DCT RUGAS DCT RIKSO UP14 ODNOD UT491 SONUP |
| Aircraft | B738/M-SDE2E3FGHIRWXY/LB1 |
Departure
| Time | 2026-05-05 19:35 |
|---|---|
| Airport | Birmingham Airport (EGBB) |
Arrival
| Time | N/A |
|---|---|
| Airport | Dalaman International Airport (LTBS) |
| Time | Latitude | Longitude | Altitude | Speed | Heading |
|---|---|---|---|---|---|
| 2026-05-05 19:10 | 52.45060 | -1.73267 | 322 ft | 0 kts | 326° |
| 2026-05-05 19:26 | 52.45058 | -1.73265 | 322 ft | 2 kts | 326° |
| 2026-05-05 19:26 | 52.45038 | -1.73239 | 321 ft | 4 kts | 308° |
| 2026-05-05 19:27 | 52.45029 | -1.73202 | 319 ft | 4 kts | 263° |
| 2026-05-05 19:27 | 52.45022 | -1.73218 | 320 ft | 4 kts | 230° |
| 2026-05-05 19:27 | 52.45013 | -1.73238 | 322 ft | 0 kts | 236° |
| 2026-05-05 19:30 | 52.45012 | -1.73238 | 322 ft | 0 kts | 236° |
| 2026-05-05 19:30 | 52.45004 | -1.73259 | 321 ft | 5 kts | 235° |
| 2026-05-05 19:30 | 52.44980 | -1.73316 | 322 ft | 6 kts | 236° |
| 2026-05-05 19:31 | 52.44956 | -1.73376 | 321 ft | 6 kts | 236° |
| 2026-05-05 19:31 | 52.44932 | -1.73435 | 322 ft | 6 kts | 236° |
| 2026-05-05 19:31 | 52.44909 | -1.73493 | 322 ft | 6 kts | 241° |
| 2026-05-05 19:31 | 52.44892 | -1.73566 | 321 ft | 7 kts | 244° |
| 2026-05-05 19:32 | 52.44863 | -1.73638 | 322 ft | 8 kts | 236° |
| 2026-05-05 19:32 | 52.44821 | -1.73684 | 321 ft | 7 kts | 204° |
| 2026-05-05 19:32 | 52.44774 | -1.73710 | 323 ft | 7 kts | 199° |
| 2026-05-05 19:32 | 52.44727 | -1.73760 | 322 ft | 9 kts | 230° |
| 2026-05-05 19:33 | 52.44692 | -1.73843 | 324 ft | 9 kts | 235° |
| 2026-05-05 19:33 | 52.44653 | -1.73934 | 322 ft | 10 kts | 235° |
| 2026-05-05 19:33 | 52.44677 | -1.74015 | 326 ft | 6 kts | 326° |
| 2026-05-05 19:33 | 52.44683 | -1.74022 | 324 ft | 3 kts | 326° |
| 2026-05-05 19:34 | 52.44831 | -1.74185 | 324 ft | 61 kts | 326° |
| 2026-05-05 19:34 | 52.45379 | -1.74794 | 323 ft | 128 kts | 326° |
| 2026-05-05 19:34 | 52.46261 | -1.75753 | 466 ft | 170 kts | 328° |
| 2026-05-05 19:35 | 52.48290 | -1.77974 | 2289 ft | 174 kts | 328° |
| 2026-05-05 19:35 | 52.49315 | -1.79123 | 2926 ft | 184 kts | 334° |
| 2026-05-05 19:35 | 52.50572 | -1.79736 | 3307 ft | 196 kts | 357° |
| 2026-05-05 19:35 | 52.51991 | -1.79547 | 3550 ft | 213 kts | 19° |
| 2026-05-05 19:36 | 52.53243 | -1.78247 | 4035 ft | 218 kts | 49° |
| 2026-05-05 19:36 | 52.53950 | -1.76044 | 4598 ft | 223 kts | 77° |
| 2026-05-05 19:36 | 52.53945 | -1.73469 | 5132 ft | 229 kts | 99° |
| 2026-05-05 19:36 | 52.53589 | -1.70886 | 5548 ft | 236 kts | 102° |
| 2026-05-05 19:37 | 52.53171 | -1.68296 | 5798 ft | 235 kts | 110° |
| 2026-05-05 19:37 | 52.52277 | -1.66007 | 6018 ft | 254 kts | 129° |
| 2026-05-05 19:37 | 52.50996 | -1.63852 | 6000 ft | 267 kts | 134° |
| 2026-05-05 19:37 | 52.49637 | -1.61728 | 6064 ft | 272 kts | 135° |
| 2026-05-05 19:38 | 52.48270 | -1.59566 | 6662 ft | 272 kts | 135° |
| 2026-05-05 19:38 | 52.46908 | -1.57386 | 7352 ft | 276 kts | 135° |
| 2026-05-05 19:38 | 52.45454 | -1.55288 | 7958 ft | 282 kts | 146° |
| 2026-05-05 19:38 | 52.43766 | -1.53603 | 8597 ft | 286 kts | 150° |
| 2026-05-05 19:39 | 52.42019 | -1.51970 | 9223 ft | 292 kts | 150° |
| 2026-05-05 19:39 | 52.40247 | -1.50276 | 9877 ft | 297 kts | 150° |
| 2026-05-05 19:39 | 52.38452 | -1.48524 | 10363 ft | 307 kts | 150° |
| 2026-05-05 19:39 | 52.36546 | -1.46675 | 10527 ft | 329 kts | 153° |